sensor_id;sensor_type;location;lat;lon;timestamp;P1;durP1;ratioP1;P2;durP2;ratioP2
19969;SDS011;10146;47.754;9.566;2022-09-20T00:01:05;3.50;;;2.20;;
19969;SDS011;10146;47.754;9.566;2022-09-20T00:03:31;3.97;;;2.08;;
19969;SDS011;10146;47.754;9.566;2022-09-20T00:05:59;2.95;;;1.83;;
19969;SDS011;10146;47.754;9.566;2022-09-20T00:08:26;4.10;;;1.88;;
19969;SDS011;10146;47.754;9.566;2022-09-20T00:10:56;5.15;;;2.10;;
19969;SDS011;10146;47.754;9.566;2022-09-20T00:13:24;3.40;;;1.65;;
19969;SDS011;10146;47.754;9.566;2022-09-20T00:15:49;3.30;;;2.00;;
19969;SDS011;10146;47.754;9.566;2022-09-20T00:18:15;4.15;;;1.70;;
19969;SDS011;10146;47.754;9.566;2022-09-20T00:20:46;3.70;;;1.83;;
19969;SDS011;10146;47.754;9.566;2022-09-20T00:23:14;4.47;;;1.95;;
19969;SDS011;10146;47.754;9.566;2022-09-20T00:25:40;3.38;;;2.03;;
19969;SDS011;10146;47.754;9.566;2022-09-20T00:28:06;4.20;;;1.80;;
19969;SDS011;10146;47.754;9.566;2022-09-20T00:30:33;3.65;;;2.00;;
19969;SDS011;10146;47.754;9.566;2022-09-20T00:32:59;3.60;;;1.60;;
19969;SDS011;10146;47.754;9.566;2022-09-20T00:35:25;3.83;;;2.13;;
19969;SDS011;10146;47.754;9.566;2022-09-20T00:37:51;3.30;;;2.15;;
19969;SDS011;10146;47.754;9.566;2022-09-20T00:40:18;5.32;;;1.67;;
19969;SDS011;10146;47.754;9.566;2022-09-20T00:42:46;1.90;;;1.67;;
19969;SDS011;10146;47.754;9.566;2022-09-20T00:50:48;4.35;;;1.73;;
19969;SDS011;10146;47.754;9.566;2022-09-20T00:53:28;3.97;;;1.60;;
19969;SDS011;10146;47.754;9.566;2022-09-20T00:56:01;1.70;;;1.60;;
19969;SDS011;10146;47.754;9.566;2022-09-20T00:58:31;4.00;;;1.90;;
19969;SDS011;10146;47.754;9.566;2022-09-20T01:01:02;2.95;;;2.03;;
19969;SDS011;10146;47.754;9.566;2022-09-20T01:03:30;4.95;;;1.85;;
19969;SDS011;10146;47.754;9.566;2022-09-20T01:05:58;4.18;;;1.50;;
19969;SDS011;10146;47.754;9.566;2022-09-20T01:08:28;3.20;;;1.58;;
19969;SDS011;10146;47.754;9.566;2022-09-20T01:10:54;4.80;;;2.03;;
19969;SDS011;10146;47.754;9.566;2022-09-20T01:13:20;3.35;;;2.00;;
19969;SDS011;10146;47.754;9.566;2022-09-20T01:15:45;2.75;;;1.67;;
19969;SDS011;10146;47.754;9.566;2022-09-20T01:18:13;3.70;;;1.77;;
19969;SDS011;10146;47.754;9.566;2022-09-20T01:20:41;3.00;;;1.88;;
19969;SDS011;10146;47.754;9.566;2022-09-20T01:26:27;3.15;;;2.70;;
19969;SDS011;10146;47.754;9.566;2022-09-20T01:29:04;3.65;;;2.25;;
19969;SDS011;10146;47.754;9.566;2022-09-20T01:31:42;7.28;;;2.28;;
19969;SDS011;10146;47.754;9.566;2022-09-20T01:34:14;5.55;;;2.85;;
19969;SDS011;10146;47.754;9.566;2022-09-20T01:42:32;4.57;;;1.90;;
19969;SDS011;10146;47.754;9.566;2022-09-20T01:59:41;4.38;;;1.98;;
19969;SDS011;10146;47.754;9.566;2022-09-20T02:08:34;5.53;;;2.38;;
19969;SDS011;10146;47.754;9.566;2022-09-20T02:11:35;2.75;;;2.25;;
19969;SDS011;10146;47.754;9.566;2022-09-20T02:14:30;4.70;;;2.20;;
19969;SDS011;10146;47.754;9.566;2022-09-20T02:17:19;4.80;;;2.15;;
19969;SDS011;10146;47.754;9.566;2022-09-20T02:26:20;5.47;;;2.05;;
19969;SDS011;10146;47.754;9.566;2022-09-20T02:29:31;3.75;;;2.05;;
19969;SDS011;10146;47.754;9.566;2022-09-20T02:37:59;4.18;;;2.20;;
19969;SDS011;10146;47.754;9.566;2022-09-20T02:40:55;2.67;;;1.95;;
19969;SDS011;10146;47.754;9.566;2022-09-20T02:44:00;4.78;;;1.90;;
19969;SDS011;10146;47.754;9.566;2022-09-20T02:49:50;2.75;;;1.80;;
19969;SDS011;10146;47.754;9.566;2022-09-20T02:52:30;5.90;;;2.15;;
19969;SDS011;10146;47.754;9.566;2022-09-20T02:55:15;3.60;;;1.90;;
19969;SDS011;10146;47.754;9.566;2022-09-20T02:57:56;2.90;;;1.65;;
19969;SDS011;10146;47.754;9.566;2022-09-20T03:00:28;4.68;;;2.00;;
19969;SDS011;10146;47.754;9.566;2022-09-20T03:03:04;2.60;;;1.75;;
19969;SDS011;10146;47.754;9.566;2022-09-20T03:05:57;4.35;;;1.92;;
19969;SDS011;10146;47.754;9.566;2022-09-20T03:08:33;4.78;;;2.10;;
19969;SDS011;10146;47.754;9.566;2022-09-20T03:35:27;3.50;;;2.38;;
19969;SDS011;10146;47.754;9.566;2022-09-20T03:38:10;3.83;;;2.00;;
19969;SDS011;10146;47.754;9.566;2022-09-20T03:46:26;7.65;;;2.45;;
19969;SDS011;10146;47.754;9.566;2022-09-20T03:57:17;2.72;;;2.00;;
19969;SDS011;10146;47.754;9.566;2022-09-20T04:03:06;2.70;;;2.17;;
19969;SDS011;10146;47.754;9.566;2022-09-20T04:11:12;5.05;;;2.20;;
19969;SDS011;10146;47.754;9.566;2022-09-20T04:19:32;3.38;;;2.20;;
19969;SDS011;10146;47.754;9.566;2022-09-20T04:22:06;3.70;;;2.45;;
19969;SDS011;10146;47.754;9.566;2022-09-20T04:29:42;3.05;;;2.05;;
19969;SDS011;10146;47.754;9.566;2022-09-20T04:38:15;3.50;;;2.30;;
19969;SDS011;10146;47.754;9.566;2022-09-20T04:51:16;4.28;;;2.45;;
19969;SDS011;10146;47.754;9.566;2022-09-20T05:04:59;3.80;;;2.40;;
19969;SDS011;10146;47.754;9.566;2022-09-20T05:07:51;4.95;;;2.50;;
19969;SDS011;10146;47.754;9.566;2022-09-20T05:13:17;3.80;;;2.13;;
19969;SDS011;10146;47.754;9.566;2022-09-20T05:29:09;7.43;;;2.10;;
19969;SDS011;10146;47.754;9.566;2022-09-20T05:31:45;3.25;;;2.05;;
19969;SDS011;10146;47.754;9.566;2022-09-20T05:34:28;4.50;;;2.50;;
19969;SDS011;10146;47.754;9.566;2022-09-20T05:48:45;5.25;;;2.10;;
19969;SDS011;10146;47.754;9.566;2022-09-20T05:50:58;9.00;;;2.33;;
19969;SDS011;10146;47.754;9.566;2022-09-20T05:54:01;3.80;;;1.80;;
19969;SDS011;10146;47.754;9.566;2022-09-20T06:07:57;3.83;;;1.90;;
19969;SDS011;10146;47.754;9.566;2022-09-20T06:23:57;4.63;;;2.22;;
19969;SDS011;10146;47.754;9.566;2022-09-20T06:26:25;3.00;;;2.30;;
19969;SDS011;10146;47.754;9.566;2022-09-20T06:28:57;6.25;;;3.13;;
19969;SDS011;10146;47.754;9.566;2022-09-20T06:31:27;3.47;;;2.47;;
19969;SDS011;10146;47.754;9.566;2022-09-20T06:33:59;2.83;;;2.10;;
19969;SDS011;10146;47.754;9.566;2022-09-20T06:36:38;4.68;;;2.13;;
19969;SDS011;10146;47.754;9.566;2022-09-20T06:39:35;4.18;;;2.38;;
19969;SDS011;10146;47.754;9.566;2022-09-20T06:42:24;3.92;;;2.47;;
19969;SDS011;10146;47.754;9.566;2022-09-20T06:44:51;4.88;;;2.58;;
19969;SDS011;10146;47.754;9.566;2022-09-20T06:47:17;3.28;;;1.83;;
19969;SDS011;10146;47.754;9.566;2022-09-20T06:49:43;4.30;;;2.45;;
19969;SDS011;10146;47.754;9.566;2022-09-20T06:52:14;4.50;;;3.10;;
19969;SDS011;10146;47.754;9.566;2022-09-20T06:54:42;3.55;;;2.72;;
19969;SDS011;10146;47.754;9.566;2022-09-20T06:57:09;6.22;;;2.72;;
19969;SDS011;10146;47.754;9.566;2022-09-20T06:59:41;4.05;;;2.80;;
19969;SDS011;10146;47.754;9.566;2022-09-20T07:02:07;3.08;;;2.28;;
19969;SDS011;10146;47.754;9.566;2022-09-20T07:04:33;6.10;;;2.70;;
19969;SDS011;10146;47.754;9.566;2022-09-20T07:07:02;4.60;;;2.47;;
19969;SDS011;10146;47.754;9.566;2022-09-20T07:09:29;4.80;;;2.47;;
19969;SDS011;10146;47.754;9.566;2022-09-20T07:11:55;3.95;;;2.47;;
19969;SDS011;10146;47.754;9.566;2022-09-20T07:14:23;4.30;;;2.65;;
19969;SDS011;10146;47.754;9.566;2022-09-20T07:16:50;6.05;;;2.50;;
19969;SDS011;10146;47.754;9.566;2022-09-20T07:19:16;2.25;;;2.05;;
19969;SDS011;10146;47.754;9.566;2022-09-20T07:21:42;5.32;;;2.47;;
19969;SDS011;10146;47.754;9.566;2022-09-20T07:24:07;4.38;;;2.30;;
19969;SDS011;10146;47.754;9.566;2022-09-20T07:26:33;5.30;;;2.20;;
19969;SDS011;10146;47.754;9.566;2022-09-20T07:28:59;3.13;;;2.22;;
19969;SDS011;10146;47.754;9.566;2022-09-20T07:31:27;4.93;;;2.45;;
19969;SDS011;10146;47.754;9.566;2022-09-20T07:33:53;5.32;;;2.58;;
19969;SDS011;10146;47.754;9.566;2022-09-20T07:36:19;2.70;;;2.40;;
19969;SDS011;10146;47.754;9.566;2022-09-20T07:38:46;2.20;;;2.00;;
19969;SDS011;10146;47.754;9.566;2022-09-20T07:41:12;4.68;;;2.30;;
19969;SDS011;10146;47.754;9.566;2022-09-20T07:43:38;4.13;;;1.90;;
19969;SDS011;10146;47.754;9.566;2022-09-20T07:46:04;4.93;;;2.15;;
19969;SDS011;10146;47.754;9.566;2022-09-20T07:48:30;5.10;;;2.20;;
19969;SDS011;10146;47.754;9.566;2022-09-20T07:51:02;4.45;;;2.50;;
19969;SDS011;10146;47.754;9.566;2022-09-20T07:53:30;3.63;;;2.30;;
19969;SDS011;10146;47.754;9.566;2022-09-20T07:55:59;4.30;;;2.53;;
19969;SDS011;10146;47.754;9.566;2022-09-20T07:58:27;4.28;;;2.72;;
19969;SDS011;10146;47.754;9.566;2022-09-20T08:00:57;3.00;;;2.55;;
19969;SDS011;10146;47.754;9.566;2022-09-20T08:03:23;3.33;;;2.42;;
19969;SDS011;10146;47.754;9.566;2022-09-20T08:05:50;4.10;;;2.40;;
19969;SDS011;10146;47.754;9.566;2022-09-20T08:08:16;3.83;;;2.53;;
19969;SDS011;10146;47.754;9.566;2022-09-20T08:10:43;6.22;;;2.35;;
19969;SDS011;10146;47.754;9.566;2022-09-20T08:13:10;4.00;;;2.50;;
19969;SDS011;10146;47.754;9.566;2022-09-20T08:15:37;4.07;;;2.30;;
19969;SDS011;10146;47.754;9.566;2022-09-20T08:18:03;3.95;;;2.75;;
19969;SDS011;10146;47.754;9.566;2022-09-20T08:20:28;6.80;;;2.90;;
19969;SDS011;10146;47.754;9.566;2022-09-20T08:22:57;5.45;;;3.40;;
19969;SDS011;10146;47.754;9.566;2022-09-20T08:25:22;3.42;;;2.67;;
19969;SDS011;10146;47.754;9.566;2022-09-20T08:27:52;5.03;;;4.22;;
19969;SDS011;10146;47.754;9.566;2022-09-20T08:30:18;5.45;;;2.75;;
19969;SDS011;10146;47.754;9.566;2022-09-20T08:32:44;6.03;;;2.90;;
19969;SDS011;10146;47.754;9.566;2022-09-20T08:35:09;2.72;;;2.30;;
19969;SDS011;10146;47.754;9.566;2022-09-20T08:37:36;3.63;;;2.22;;
19969;SDS011;10146;47.754;9.566;2022-09-20T08:40:02;4.30;;;3.33;;
19969;SDS011;10146;47.754;9.566;2022-09-20T08:42:32;5.22;;;3.05;;
19969;SDS011;10146;47.754;9.566;2022-09-20T08:45:01;4.15;;;2.97;;
19969;SDS011;10146;47.754;9.566;2022-09-20T08:47:31;5.20;;;2.80;;
19969;SDS011;10146;47.754;9.566;2022-09-20T08:50:02;5.05;;;2.75;;
19969;SDS011;10146;47.754;9.566;2022-09-20T08:52:31;5.88;;;4.00;;
19969;SDS011;10146;47.754;9.566;2022-09-20T08:55:01;5.90;;;2.83;;
19969;SDS011;10146;47.754;9.566;2022-09-20T08:57:29;5.68;;;3.42;;
19969;SDS011;10146;47.754;9.566;2022-09-20T08:59:58;5.60;;;3.13;;
19969;SDS011;10146;47.754;9.566;2022-09-20T09:02:25;6.18;;;2.90;;
19969;SDS011;10146;47.754;9.566;2022-09-20T09:04:55;5.15;;;2.90;;
19969;SDS011;10146;47.754;9.566;2022-09-20T09:07:21;3.85;;;2.55;;
19969;SDS011;10146;47.754;9.566;2022-09-20T09:09:50;5.57;;;2.90;;
19969;SDS011;10146;47.754;9.566;2022-09-20T09:12:26;4.45;;;2.50;;
19969;SDS011;10146;47.754;9.566;2022-09-20T09:14:58;3.97;;;2.42;;
19969;SDS011;10146;47.754;9.566;2022-09-20T09:17:27;5.18;;;2.60;;
19969;SDS011;10146;47.754;9.566;2022-09-20T09:22:30;6.03;;;2.60;;
19969;SDS011;10146;47.754;9.566;2022-09-20T09:27:54;5.93;;;3.90;;
19969;SDS011;10146;47.754;9.566;2022-09-20T09:30:39;6.47;;;3.90;;
19969;SDS011;10146;47.754;9.566;2022-09-20T09:36:07;8.55;;;4.10;;
19969;SDS011;10146;47.754;9.566;2022-09-20T09:38:41;10.98;;;6.18;;
19969;SDS011;10146;47.754;9.566;2022-09-20T09:46:24;5.43;;;2.78;;
19969;SDS011;10146;47.754;9.566;2022-09-20T09:51:31;5.65;;;2.40;;
19969;SDS011;10146;47.754;9.566;2022-09-20T09:53:57;6.50;;;2.35;;
19969;SDS011;10146;47.754;9.566;2022-09-20T10:31:50;6.18;;;2.35;;
19969;SDS011;10146;47.754;9.566;2022-09-20T10:36:59;4.75;;;2.15;;
19969;SDS011;10146;47.754;9.566;2022-09-20T10:39:43;3.00;;;1.90;;
19969;SDS011;10146;47.754;9.566;2022-09-20T10:50:43;4.55;;;2.10;;
19969;SDS011;10146;47.754;9.566;2022-09-20T11:07:22;4.55;;;1.73;;
19969;SDS011;10146;47.754;9.566;2022-09-20T11:12:57;4.38;;;1.40;;
19969;SDS011;10146;47.754;9.566;2022-09-20T11:15:42;4.85;;;1.52;;
19969;SDS011;10146;47.754;9.566;2022-09-20T11:18:20;3.03;;;1.50;;
19969;SDS011;10146;47.754;9.566;2022-09-20T11:21:25;3.88;;;1.50;;
19969;SDS011;10146;47.754;9.566;2022-09-20T11:26:43;3.45;;;1.60;;
19969;SDS011;10146;47.754;9.566;2022-09-20T11:31:59;5.60;;;1.60;;
19969;SDS011;10146;47.754;9.566;2022-09-20T11:34:35;5.57;;;1.77;;
19969;SDS011;10146;47.754;9.566;2022-09-20T11:37:07;2.65;;;1.60;;
19969;SDS011;10146;47.754;9.566;2022-09-20T11:39:36;4.35;;;1.60;;
19969;SDS011;10146;47.754;9.566;2022-09-20T11:42:13;4.72;;;1.50;;
19969;SDS011;10146;47.754;9.566;2022-09-20T11:44:43;5.32;;;2.15;;
19969;SDS011;10146;47.754;9.566;2022-09-20T11:53:12;3.20;;;1.38;;
19969;SDS011;10146;47.754;9.566;2022-09-20T11:56:01;3.30;;;1.40;;
19969;SDS011;10146;47.754;9.566;2022-09-20T12:04:09;3.72;;;1.40;;
19969;SDS011;10146;47.754;9.566;2022-09-20T12:06:42;3.22;;;1.35;;
19969;SDS011;10146;47.754;9.566;2022-09-20T12:15:03;3.35;;;1.77;;
19969;SDS011;10146;47.754;9.566;2022-09-20T12:26:03;2.67;;;1.58;;
19969;SDS011;10146;47.754;9.566;2022-09-20T12:28:40;3.50;;;1.40;;
19969;SDS011;10146;47.754;9.566;2022-09-20T12:47:16;3.22;;;1.85;;
19969;SDS011;10146;47.754;9.566;2022-09-20T12:49:55;2.63;;;1.40;;
19969;SDS011;10146;47.754;9.566;2022-09-20T12:58:34;2.03;;;1.42;;
19969;SDS011;10146;47.754;9.566;2022-09-20T13:03:45;3.20;;;1.40;;
19969;SDS011;10146;47.754;9.566;2022-09-20T13:16:45;3.38;;;1.52;;
19969;SDS011;10146;47.754;9.566;2022-09-20T13:19:23;2.33;;;1.30;;
19969;SDS011;10146;47.754;9.566;2022-09-20T13:22:03;2.25;;;1.40;;
19969;SDS011;10146;47.754;9.566;2022-09-20T13:24:36;4.10;;;1.70;;
19969;SDS011;10146;47.754;9.566;2022-09-20T13:27:05;4.47;;;1.30;;
19969;SDS011;10146;47.754;9.566;2022-09-20T13:29:43;2.78;;;1.17;;
19969;SDS011;10146;47.754;9.566;2022-09-20T13:32:25;2.50;;;1.23;;
19969;SDS011;10146;47.754;9.566;2022-09-20T13:37:45;6.60;;;1.58;;
19969;SDS011;10146;47.754;9.566;2022-09-20T13:40:21;5.20;;;1.58;;
19969;SDS011;10146;47.754;9.566;2022-09-20T13:42:57;2.83;;;1.48;;
19969;SDS011;10146;47.754;9.566;2022-09-20T13:45:25;2.80;;;1.60;;
19969;SDS011;10146;47.754;9.566;2022-09-20T13:47:53;3.72;;;1.70;;
19969;SDS011;10146;47.754;9.566;2022-09-20T13:52:57;2.03;;;1.20;;
19969;SDS011;10146;47.754;9.566;2022-09-20T13:55:32;2.80;;;1.38;;
19969;SDS011;10146;47.754;9.566;2022-09-20T13:58:07;4.00;;;1.55;;
19969;SDS011;10146;47.754;9.566;2022-09-20T14:00:51;4.13;;;1.75;;
19969;SDS011;10146;47.754;9.566;2022-09-20T14:03:19;2.88;;;1.25;;
19969;SDS011;10146;47.754;9.566;2022-09-20T14:05:50;2.30;;;1.30;;
19969;SDS011;10146;47.754;9.566;2022-09-20T14:13:38;2.78;;;1.48;;
19969;SDS011;10146;47.754;9.566;2022-09-20T14:16:06;2.15;;;1.17;;
19969;SDS011;10146;47.754;9.566;2022-09-20T14:18:34;2.75;;;1.13;;
19969;SDS011;10146;47.754;9.566;2022-09-20T14:21:02;2.90;;;1.23;;
19969;SDS011;10146;47.754;9.566;2022-09-20T14:23:29;2.05;;;1.00;;
19969;SDS011;10146;47.754;9.566;2022-09-20T14:26:58;3.17;;;1.10;;
19969;SDS011;10146;47.754;9.566;2022-09-20T14:34:42;3.22;;;1.15;;
19969;SDS011;10146;47.754;9.566;2022-09-20T14:37:13;1.58;;;1.00;;
19969;SDS011;10146;47.754;9.566;2022-09-20T14:39:53;4.72;;;1.55;;
19969;SDS011;10146;47.754;9.566;2022-09-20T14:42:34;2.28;;;0.90;;
19969;SDS011;10146;47.754;9.566;2022-09-20T14:45:06;2.05;;;1.08;;
19969;SDS011;10146;47.754;9.566;2022-09-20T14:48:03;3.28;;;1.10;;
19969;SDS011;10146;47.754;9.566;2022-09-20T14:50:40;3.60;;;1.20;;
19969;SDS011;10146;47.754;9.566;2022-09-20T14:55:33;2.88;;;0.80;;
19969;SDS011;10146;47.754;9.566;2022-09-20T14:58:00;2.50;;;1.02;;
19969;SDS011;10146;47.754;9.566;2022-09-20T15:00:44;3.38;;;1.33;;
19969;SDS011;10146;47.754;9.566;2022-09-20T15:03:15;2.75;;;1.10;;
19969;SDS011;10146;47.754;9.566;2022-09-20T15:05:48;2.72;;;1.00;;
19969;SDS011;10146;47.754;9.566;2022-09-20T15:08:14;3.42;;;1.35;;
19969;SDS011;10146;47.754;9.566;2022-09-20T15:10:42;2.15;;;1.20;;
19969;SDS011;10146;47.754;9.566;2022-09-20T15:13:08;1.80;;;1.10;;
19969;SDS011;10146;47.754;9.566;2022-09-20T15:15:35;3.70;;;1.33;;
19969;SDS011;10146;47.754;9.566;2022-09-20T15:18:01;3.55;;;1.15;;
19969;SDS011;10146;47.754;9.566;2022-09-20T15:20:27;2.10;;;1.00;;
19969;SDS011;10146;47.754;9.566;2022-09-20T15:22:53;4.32;;;1.15;;
19969;SDS011;10146;47.754;9.566;2022-09-20T15:25:20;1.70;;;1.20;;
19969;SDS011;10146;47.754;9.566;2022-09-20T15:27:46;2.28;;;1.10;;
19969;SDS011;10146;47.754;9.566;2022-09-20T15:30:15;2.30;;;1.10;;
19969;SDS011;10146;47.754;9.566;2022-09-20T15:32:43;1.17;;;0.70;;
19969;SDS011;10146;47.754;9.566;2022-09-20T15:35:10;2.15;;;0.80;;
19969;SDS011;10146;47.754;9.566;2022-09-20T15:37:36;2.03;;;1.10;;
19969;SDS011;10146;47.754;9.566;2022-09-20T15:40:02;2.65;;;1.13;;
19969;SDS011;10146;47.754;9.566;2022-09-20T15:42:29;5.68;;;1.13;;
19969;SDS011;10146;47.754;9.566;2022-09-20T15:44:55;2.55;;;0.90;;
19969;SDS011;10146;47.754;9.566;2022-09-20T15:47:23;5.00;;;0.90;;
19969;SDS011;10146;47.754;9.566;2022-09-20T15:49:52;2.10;;;1.30;;
19969;SDS011;10146;47.754;9.566;2022-09-20T15:52:18;3.97;;;1.20;;
19969;SDS011;10146;47.754;9.566;2022-09-20T15:54:48;3.33;;;0.95;;
19969;SDS011;10146;47.754;9.566;2022-09-20T15:57:14;3.28;;;1.05;;
19969;SDS011;10146;47.754;9.566;2022-09-20T15:59:39;4.40;;;1.33;;
19969;SDS011;10146;47.754;9.566;2022-09-20T16:02:05;4.45;;;1.55;;
19969;SDS011;10146;47.754;9.566;2022-09-20T16:04:31;3.92;;;1.00;;
19969;SDS011;10146;47.754;9.566;2022-09-20T16:06:58;4.18;;;1.13;;
19969;SDS011;10146;47.754;9.566;2022-09-20T16:09:24;3.20;;;1.20;;
19969;SDS011;10146;47.754;9.566;2022-09-20T16:11:49;2.33;;;1.20;;
19969;SDS011;10146;47.754;9.566;2022-09-20T16:14:15;2.80;;;1.08;;
19969;SDS011;10146;47.754;9.566;2022-09-20T16:16:41;4.57;;;1.25;;
19969;SDS011;10146;47.754;9.566;2022-09-20T16:19:08;3.30;;;1.15;;
19969;SDS011;10146;47.754;9.566;2022-09-20T16:21:56;4.30;;;1.30;;
19969;SDS011;10146;47.754;9.566;2022-09-20T16:24:23;2.85;;;1.20;;
19969;SDS011;10146;47.754;9.566;2022-09-20T16:26:57;2.60;;;1.10;;
19969;SDS011;10146;47.754;9.566;2022-09-20T16:29:24;2.55;;;1.08;;
19969;SDS011;10146;47.754;9.566;2022-09-20T16:31:51;4.20;;;1.10;;
19969;SDS011;10146;47.754;9.566;2022-09-20T16:34:28;4.60;;;1.40;;
19969;SDS011;10146;47.754;9.566;2022-09-20T16:37:05;3.78;;;1.35;;
19969;SDS011;10146;47.754;9.566;2022-09-20T16:39:35;2.72;;;1.23;;
19969;SDS011;10146;47.754;9.566;2022-09-20T16:42:02;6.72;;;1.98;;
19969;SDS011;10146;47.754;9.566;2022-09-20T16:44:30;5.22;;;1.38;;
19969;SDS011;10146;47.754;9.566;2022-09-20T16:46:57;6.53;;;1.45;;
19969;SDS011;10146;47.754;9.566;2022-09-20T16:49:23;3.80;;;1.60;;
19969;SDS011;10146;47.754;9.566;2022-09-20T16:51:51;5.60;;;1.27;;
19969;SDS011;10146;47.754;9.566;2022-09-20T16:54:17;6.43;;;1.58;;
19969;SDS011;10146;47.754;9.566;2022-09-20T16:56:47;2.78;;;1.20;;
19969;SDS011;10146;47.754;9.566;2022-09-20T16:59:14;3.67;;;1.38;;
19969;SDS011;10146;47.754;9.566;2022-09-20T17:01:42;3.00;;;1.45;;
19969;SDS011;10146;47.754;9.566;2022-09-20T17:04:08;3.42;;;1.40;;
19969;SDS011;10146;47.754;9.566;2022-09-20T17:06:38;3.30;;;1.40;;
19969;SDS011;10146;47.754;9.566;2022-09-20T17:09:05;5.70;;;1.55;;
19969;SDS011;10146;47.754;9.566;2022-09-20T17:11:36;1.75;;;1.27;;
19969;SDS011;10146;47.754;9.566;2022-09-20T17:14:07;2.63;;;1.42;;
19969;SDS011;10146;47.754;9.566;2022-09-20T17:16:34;3.60;;;1.40;;
19969;SDS011;10146;47.754;9.566;2022-09-20T17:19:02;4.28;;;1.67;;
19969;SDS011;10146;47.754;9.566;2022-09-20T17:21:33;5.25;;;3.95;;
19969;SDS011;10146;47.754;9.566;2022-09-20T17:24:01;3.33;;;1.90;;
19969;SDS011;10146;47.754;9.566;2022-09-20T17:26:30;4.75;;;1.50;;
19969;SDS011;10146;47.754;9.566;2022-09-20T17:29:02;3.50;;;1.80;;
19969;SDS011;10146;47.754;9.566;2022-09-20T17:31:31;5.68;;;1.80;;
19969;SDS011;10146;47.754;9.566;2022-09-20T17:34:00;2.53;;;1.90;;
19969;SDS011;10146;47.754;9.566;2022-09-20T17:36:30;3.78;;;1.63;;
19969;SDS011;10146;47.754;9.566;2022-09-20T17:38:58;5.22;;;1.70;;
19969;SDS011;10146;47.754;9.566;2022-09-20T17:41:25;3.47;;;1.50;;
19969;SDS011;10146;47.754;9.566;2022-09-20T17:43:52;4.85;;;1.58;;
19969;SDS011;10146;47.754;9.566;2022-09-20T17:46:20;2.75;;;1.73;;
19969;SDS011;10146;47.754;9.566;2022-09-20T17:48:53;3.92;;;1.65;;
19969;SDS011;10146;47.754;9.566;2022-09-20T17:51:22;4.25;;;1.75;;
19969;SDS011;10146;47.754;9.566;2022-09-20T17:53:49;6.97;;;2.00;;
19969;SDS011;10146;47.754;9.566;2022-09-20T17:56:15;6.47;;;2.03;;
19969;SDS011;10146;47.754;9.566;2022-09-20T17:58:41;3.25;;;1.80;;
19969;SDS011;10146;47.754;9.566;2022-09-20T18:01:09;5.15;;;1.92;;
19969;SDS011;10146;47.754;9.566;2022-09-20T18:03:36;3.05;;;1.70;;
19969;SDS011;10146;47.754;9.566;2022-09-20T18:06:38;5.03;;;2.33;;
19969;SDS011;10146;47.754;9.566;2022-09-20T18:09:01;6.68;;;2.40;;
19969;SDS011;10146;47.754;9.566;2022-09-20T18:13:59;4.97;;;1.92;;
19969;SDS011;10146;47.754;9.566;2022-09-20T18:16:25;5.03;;;2.40;;
19969;SDS011;10146;47.754;9.566;2022-09-20T18:18:51;4.15;;;2.22;;
19969;SDS011;10146;47.754;9.566;2022-09-20T18:21:18;5.32;;;2.15;;
19969;SDS011;10146;47.754;9.566;2022-09-20T18:23:45;4.80;;;2.10;;
19969;SDS011;10146;47.754;9.566;2022-09-20T18:26:16;5.90;;;2.50;;
19969;SDS011;10146;47.754;9.566;2022-09-20T18:28:46;5.38;;;2.20;;
19969;SDS011;10146;47.754;9.566;2022-09-20T18:31:14;6.82;;;2.25;;
19969;SDS011;10146;47.754;9.566;2022-09-20T18:33:41;7.13;;;2.60;;
19969;SDS011;10146;47.754;9.566;2022-09-20T18:36:07;8.13;;;2.47;;
19969;SDS011;10146;47.754;9.566;2022-09-20T18:38:33;5.43;;;2.42;;
19969;SDS011;10146;47.754;9.566;2022-09-20T18:40:59;5.95;;;2.72;;
19969;SDS011;10146;47.754;9.566;2022-09-20T18:43:26;5.82;;;2.15;;
19969;SDS011;10146;47.754;9.566;2022-09-20T18:45:53;7.68;;;2.20;;
19969;SDS011;10146;47.754;9.566;2022-09-20T18:48:21;5.82;;;2.22;;
19969;SDS011;10146;47.754;9.566;2022-09-20T18:50:58;6.82;;;2.72;;
19969;SDS011;10146;47.754;9.566;2022-09-20T18:53:28;5.68;;;2.78;;
19969;SDS011;10146;47.754;9.566;2022-09-20T18:58:48;6.85;;;2.97;;
19969;SDS011;10146;47.754;9.566;2022-09-20T19:01:23;7.35;;;3.00;;
19969;SDS011;10146;47.754;9.566;2022-09-20T19:06:50;4.93;;;2.40;;
19969;SDS011;10146;47.754;9.566;2022-09-20T19:09:32;5.70;;;2.90;;
19969;SDS011;10146;47.754;9.566;2022-09-20T19:12:03;4.50;;;2.75;;
19969;SDS011;10146;47.754;9.566;2022-09-20T19:20:42;7.50;;;2.67;;
19969;SDS011;10146;47.754;9.566;2022-09-20T19:26:21;7.50;;;2.80;;
19969;SDS011;10146;47.754;9.566;2022-09-20T19:28:58;7.78;;;3.35;;
19969;SDS011;10146;47.754;9.566;2022-09-20T19:31:25;2.95;;;2.50;;
19969;SDS011;10146;47.754;9.566;2022-09-20T19:33:53;4.70;;;2.78;;
19969;SDS011;10146;47.754;9.566;2022-09-20T19:36:20;5.90;;;2.67;;
19969;SDS011;10146;47.754;9.566;2022-09-20T19:38:50;5.20;;;2.90;;
19969;SDS011;10146;47.754;9.566;2022-09-20T19:44:14;3.72;;;2.83;;
19969;SDS011;10146;47.754;9.566;2022-09-20T19:52:20;3.28;;;2.53;;
19969;SDS011;10146;47.754;9.566;2022-09-20T19:54:47;4.50;;;2.60;;
19969;SDS011;10146;47.754;9.566;2022-09-20T19:57:18;8.05;;;2.90;;
19969;SDS011;10146;47.754;9.566;2022-09-20T19:59:44;7.20;;;2.70;;
19969;SDS011;10146;47.754;9.566;2022-09-20T20:02:10;8.98;;;2.63;;
19969;SDS011;10146;47.754;9.566;2022-09-20T20:04:36;4.35;;;2.50;;
19969;SDS011;10146;47.754;9.566;2022-09-20T20:12:34;5.13;;;2.72;;
19969;SDS011;10146;47.754;9.566;2022-09-20T20:15:19;4.18;;;2.65;;
19969;SDS011;10146;47.754;9.566;2022-09-20T20:17:57;5.13;;;3.08;;
19969;SDS011;10146;47.754;9.566;2022-09-20T20:20:48;7.20;;;3.00;;
19969;SDS011;10146;47.754;9.566;2022-09-20T20:26:21;4.88;;;2.70;;
19969;SDS011;10146;47.754;9.566;2022-09-20T20:28:49;4.45;;;2.67;;
19969;SDS011;10146;47.754;9.566;2022-09-20T20:31:17;5.05;;;3.00;;
19969;SDS011;10146;47.754;9.566;2022-09-20T20:33:45;3.67;;;2.60;;
19969;SDS011;10146;47.754;9.566;2022-09-20T20:36:11;4.28;;;2.80;;
19969;SDS011;10146;47.754;9.566;2022-09-20T20:38:40;4.85;;;3.03;;
19969;SDS011;10146;47.754;9.566;2022-09-20T20:41:13;7.80;;;2.53;;
19969;SDS011;10146;47.754;9.566;2022-09-20T20:43:42;6.55;;;2.75;;
19969;SDS011;10146;47.754;9.566;2022-09-20T20:46:10;3.92;;;2.42;;
19969;SDS011;10146;47.754;9.566;2022-09-20T20:48:38;6.80;;;3.05;;
19969;SDS011;10146;47.754;9.566;2022-09-20T20:53:35;5.63;;;2.60;;
19969;SDS011;10146;47.754;9.566;2022-09-20T20:56:12;6.50;;;2.95;;
19969;SDS011;10146;47.754;9.566;2022-09-20T20:58:43;5.53;;;2.63;;
19969;SDS011;10146;47.754;9.566;2022-09-20T21:03:50;5.30;;;2.80;;
19969;SDS011;10146;47.754;9.566;2022-09-20T21:06:17;6.45;;;2.83;;
19969;SDS011;10146;47.754;9.566;2022-09-20T21:08:44;6.35;;;3.13;;
19969;SDS011;10146;47.754;9.566;2022-09-20T21:11:12;4.28;;;2.85;;
19969;SDS011;10146;47.754;9.566;2022-09-20T21:13:39;5.93;;;2.55;;
19969;SDS011;10146;47.754;9.566;2022-09-20T21:16:06;6.50;;;2.97;;
19969;SDS011;10146;47.754;9.566;2022-09-20T21:18:37;4.80;;;2.85;;
19969;SDS011;10146;47.754;9.566;2022-09-20T21:21:11;4.88;;;2.67;;
19969;SDS011;10146;47.754;9.566;2022-09-20T21:23:48;8.18;;;3.60;;
19969;SDS011;10146;47.754;9.566;2022-09-20T21:26:16;4.28;;;2.58;;
19969;SDS011;10146;47.754;9.566;2022-09-20T21:29:04;3.80;;;2.40;;
19969;SDS011;10146;47.754;9.566;2022-09-20T21:31:33;4.38;;;2.85;;
19969;SDS011;10146;47.754;9.566;2022-09-20T21:34:00;7.85;;;3.28;;
19969;SDS011;10146;47.754;9.566;2022-09-20T21:36:29;4.75;;;2.80;;
19969;SDS011;10146;47.754;9.566;2022-09-20T21:38:55;8.25;;;3.10;;
19969;SDS011;10146;47.754;9.566;2022-09-20T21:41:22;3.08;;;2.60;;
19969;SDS011;10146;47.754;9.566;2022-09-20T21:43:53;4.75;;;3.00;;
19969;SDS011;10146;47.754;9.566;2022-09-20T21:46:20;5.32;;;2.72;;